createdAt,value
2023-05-23T00:01:55.446Z,100.00
2023-05-23T00:04:27.322Z,100.00
2023-05-23T00:06:54.624Z,100.00
2023-05-23T00:09:21.924Z,100.00
2023-05-23T00:11:48.986Z,100.00
2023-05-23T00:14:16.316Z,100.00
2023-05-23T00:16:45.183Z,100.00
2023-05-23T00:19:15.359Z,100.00
2023-05-23T00:21:44.269Z,100.00
2023-05-23T00:24:11.443Z,100.00
2023-05-23T00:26:39.017Z,100.00
2023-05-23T00:29:06.605Z,100.00
2023-05-23T00:31:33.754Z,100.00
2023-05-23T00:34:00.946Z,100.00
2023-05-23T00:36:28.114Z,100.00
2023-05-23T00:38:55.849Z,100.00
2023-05-23T00:41:23.124Z,100.00
2023-05-23T00:43:50.381Z,100.00
2023-05-23T00:46:17.643Z,100.00
2023-05-23T00:48:45.200Z,100.00
2023-05-23T00:51:12.280Z,100.00
2023-05-23T00:53:39.465Z,100.00
2023-05-23T00:56:07.049Z,100.00
2023-05-23T00:58:35.237Z,100.00
2023-05-23T01:01:02.871Z,100.00
2023-05-23T01:03:30.518Z,100.00
2023-05-23T01:05:57.950Z,100.00
2023-05-23T01:08:25.182Z,100.00
2023-05-23T01:11:11.224Z,100.00
2023-05-23T01:13:47.825Z,100.00
2023-05-23T01:16:29.222Z,100.00
2023-05-23T01:19:17.736Z,100.00
2023-05-23T01:21:53.197Z,100.00
2023-05-23T01:24:54.861Z,100.00
2023-05-23T01:27:54.423Z,100.00
2023-05-23T01:30:23.471Z,100.00
2023-05-23T01:32:53.781Z,100.00
2023-05-23T01:35:26.328Z,100.00
2023-05-23T01:37:58.059Z,100.00
2023-05-23T01:40:26.159Z,100.00
2023-05-23T01:42:57.481Z,100.00
2023-05-23T01:45:26.940Z,100.00
2023-05-23T01:47:55.203Z,100.00
2023-05-23T01:50:23.828Z,100.00
2023-05-23T01:52:51.327Z,100.00
2023-05-23T01:55:22.861Z,100.00
2023-05-23T01:58:00.569Z,100.00
2023-05-23T02:00:27.977Z,100.00
2023-05-23T02:02:55.376Z,100.00
2023-05-23T02:05:22.754Z,100.00
2023-05-23T02:07:49.730Z,100.00
2023-05-23T02:10:18.073Z,100.00
2023-05-23T02:12:45.428Z,100.00
2023-05-23T02:15:12.527Z,100.00
2023-05-23T02:17:39.701Z,100.00
2023-05-23T02:20:07.799Z,100.00
2023-05-23T02:22:36.179Z,100.00
2023-05-23T02:25:03.258Z,100.00
2023-05-23T02:27:30.421Z,100.00
2023-05-23T02:29:57.612Z,100.00
2023-05-23T02:32:24.942Z,100.00
2023-05-23T02:34:52.937Z,100.00
2023-05-23T02:37:21.234Z,100.00
2023-05-23T02:39:48.601Z,100.00
2023-05-23T02:42:15.692Z,100.00
2023-05-23T02:44:42.916Z,100.00
2023-05-23T02:47:10.745Z,100.00
2023-05-23T02:49:37.899Z,100.00
2023-05-23T02:52:06.898Z,100.00
2023-05-23T02:54:34.037Z,100.00
2023-05-23T02:57:01.552Z,100.00
2023-05-23T02:59:29.474Z,100.00
2023-05-23T03:01:56.730Z,100.00
2023-05-23T03:04:24.172Z,100.00
2023-05-23T03:06:54.379Z,100.00
2023-05-23T03:09:21.898Z,100.00
2023-05-23T03:11:49.235Z,100.00
2023-05-23T03:14:16.717Z,100.00
2023-05-23T03:16:43.929Z,100.00
2023-05-23T03:19:11.238Z,100.00
2023-05-23T03:21:39.027Z,100.00
2023-05-23T03:24:06.448Z,100.00
2023-05-23T03:26:33.755Z,100.00
2023-05-23T03:29:00.864Z,100.00
2023-05-23T03:31:28.034Z,100.00
2023-05-23T03:33:55.096Z,100.00
2023-05-23T03:36:26.102Z,100.00
2023-05-23T03:38:53.452Z,100.00
2023-05-23T03:41:21.577Z,100.00
2023-05-23T03:43:48.722Z,100.00
2023-05-23T03:46:16.263Z,100.00
2023-05-23T03:48:44.013Z,100.00
2023-05-23T03:51:13.535Z,100.00
2023-05-23T03:53:41.465Z,100.00
2023-05-23T03:56:08.599Z,100.00
2023-05-23T03:58:35.701Z,100.00
2023-05-23T04:01:09.395Z,100.00
2023-05-23T04:03:36.956Z,100.00
2023-05-23T04:06:04.763Z,100.00
2023-05-23T04:08:34.104Z,100.00
2023-05-23T04:11:02.093Z,100.00
2023-05-23T04:13:33.363Z,100.00
2023-05-23T04:16:02.339Z,100.00
2023-05-23T04:18:30.481Z,100.00
2023-05-23T04:20:59.562Z,100.00
2023-05-23T04:23:26.791Z,100.00
2023-05-23T04:25:54.811Z,100.00
2023-05-23T04:28:27.859Z,100.00
2023-05-23T04:30:56.535Z,100.00
2023-05-23T04:33:28.471Z,100.00
2023-05-23T04:35:56.380Z,100.00
2023-05-23T04:38:25.237Z,100.00
2023-05-23T04:40:54.252Z,100.00
2023-05-23T04:43:43.087Z,100.00
2023-05-23T04:46:27.449Z,100.00
2023-05-23T04:49:15.143Z,100.00
2023-05-23T04:51:43.154Z,100.00
2023-05-23T04:54:20.034Z,100.00
2023-05-23T04:56:47.541Z,100.00
2023-05-23T04:59:18.033Z,100.00
2023-05-23T05:01:45.326Z,100.00
2023-05-23T05:04:14.205Z,100.00
2023-05-23T05:06:42.449Z,100.00
2023-05-23T05:09:10.286Z,100.00
2023-05-23T05:11:37.658Z,100.00
2023-05-23T05:14:04.750Z,100.00
2023-05-23T05:16:32.006Z,100.00
2023-05-23T05:19:00.730Z,100.00
2023-05-23T05:21:27.953Z,100.00
2023-05-23T05:23:55.281Z,100.00
2023-05-23T05:26:23.388Z,100.00
2023-05-23T05:28:51.737Z,100.00
2023-05-23T05:31:19.869Z,100.00
2023-05-23T05:33:47.384Z,100.00
2023-05-23T05:36:16.165Z,100.00
2023-05-23T05:38:44.124Z,100.00
2023-05-23T05:41:11.342Z,100.00
2023-05-23T05:43:47.334Z,100.00
2023-05-23T05:46:14.934Z,100.00
2023-05-23T05:48:42.617Z,100.00
2023-05-23T05:51:12.500Z,100.00
2023-05-23T05:53:43.165Z,100.00
2023-05-23T05:56:10.521Z,100.00
2023-05-23T05:58:39.202Z,98.54
2023-05-23T06:01:08.922Z,97.95
2023-05-23T06:03:36.426Z,95.90
2023-05-23T06:06:03.877Z,95.22
2023-05-23T06:08:31.092Z,93.75
2023-05-23T06:10:58.230Z,93.91
2023-05-23T06:13:26.764Z,94.55
2023-05-23T06:15:54.805Z,93.85
2023-05-23T06:18:23.089Z,93.51
2023-05-23T06:20:51.495Z,93.99
2023-05-23T06:23:20.684Z,93.65
2023-05-23T06:25:48.324Z,92.75
2023-05-23T06:28:15.558Z,90.05
2023-05-23T06:30:42.898Z,88.90
2023-05-23T06:33:10.360Z,86.67
2023-05-23T06:35:37.621Z,86.22
2023-05-23T06:38:04.707Z,85.67
2023-05-23T06:40:31.925Z,85.49
2023-05-23T06:42:59.380Z,83.58
2023-05-23T06:45:49.111Z,83.34
2023-05-23T06:48:16.533Z,82.31
2023-05-23T06:50:45.948Z,81.26
2023-05-23T06:53:15.640Z,79.11
2023-05-23T06:55:43.918Z,78.67
2023-05-23T06:58:14.889Z,78.69
2023-05-23T07:00:42.215Z,78.27
2023-05-23T07:03:18.224Z,76.56
2023-05-23T07:05:45.594Z,77.80
2023-05-23T07:08:13.233Z,75.65
2023-05-23T07:10:47.075Z,76.01
2023-05-23T07:13:26.307Z,75.33
2023-05-23T07:15:53.576Z,76.26
2023-05-23T07:18:20.887Z,75.52
2023-05-23T07:20:48.441Z,74.76
2023-05-23T07:23:17.929Z,75.13
2023-05-23T07:26:01.238Z,75.87
2023-05-23T07:28:39.508Z,74.56
2023-05-23T07:31:09.462Z,72.63
2023-05-23T07:33:37.978Z,72.91
2023-05-23T07:36:06.568Z,70.66
2023-05-23T07:38:33.767Z,70.16
2023-05-23T07:41:10.870Z,69.28
2023-05-23T07:43:39.948Z,69.61
2023-05-23T07:46:07.179Z,71.08
2023-05-23T07:48:34.391Z,70.27
2023-05-23T07:51:01.592Z,69.48
2023-05-23T07:53:29.444Z,70.17
2023-05-23T07:55:57.956Z,70.02
2023-05-23T07:58:28.131Z,69.49
2023-05-23T08:00:55.373Z,69.67
2023-05-23T08:03:42.535Z,68.83
2023-05-23T08:06:15.576Z,68.22
2023-05-23T08:08:43.850Z,66.30
2023-05-23T08:11:10.989Z,66.98
2023-05-23T08:13:44.342Z,64.09
2023-05-23T08:16:30.327Z,64.13
2023-05-23T08:18:57.833Z,64.12
2023-05-23T08:21:25.020Z,64.08
2023-05-23T08:23:52.601Z,65.25
2023-05-23T08:26:20.077Z,64.28
2023-05-23T08:28:48.437Z,64.73
2023-05-23T08:31:15.744Z,65.00
2023-05-23T08:33:44.761Z,65.02
2023-05-23T08:36:12.645Z,61.01
2023-05-23T08:38:40.146Z,62.61
2023-05-23T08:41:27.592Z,61.52
2023-05-23T08:44:01.383Z,59.45
2023-05-23T08:46:35.357Z,58.64
2023-05-23T08:49:02.992Z,59.03
2023-05-23T08:51:33.068Z,59.51
2023-05-23T08:54:06.299Z,60.40
2023-05-23T08:56:35.200Z,57.85
2023-05-23T08:59:03.341Z,59.51
2023-05-23T09:01:32.331Z,57.11
2023-05-23T09:04:05.216Z,57.02
2023-05-23T09:06:51.188Z,58.77
2023-05-23T09:09:18.870Z,57.56
2023-05-23T09:11:47.304Z,58.12
2023-05-23T09:14:15.598Z,57.18
2023-05-23T09:16:47.235Z,59.07
2023-05-23T09:19:16.476Z,58.18
2023-05-23T09:21:50.859Z,59.36
2023-05-23T09:24:34.857Z,60.30
2023-05-23T09:27:03.204Z,57.50
2023-05-23T09:29:30.985Z,55.29
2023-05-23T09:32:10.504Z,57.08
2023-05-23T09:35:03.811Z,57.96
2023-05-23T09:37:31.514Z,56.23
2023-05-23T09:40:06.656Z,55.38
2023-05-23T09:42:34.567Z,54.52
2023-05-23T09:45:04.340Z,55.72
2023-05-23T09:47:32.556Z,56.83
2023-05-23T09:49:59.851Z,57.86
2023-05-23T09:52:27.692Z,56.45
2023-05-23T09:54:55.347Z,54.88
2023-05-23T09:57:23.581Z,54.34
2023-05-23T09:59:54.496Z,52.34
2023-05-23T10:02:54.967Z,53.09
2023-05-23T10:05:40.959Z,49.94
2023-05-23T10:08:12.190Z,47.98
2023-05-23T10:11:14.432Z,49.20
2023-05-23T10:13:49.730Z,47.46
2023-05-23T10:16:40.393Z,48.59
2023-05-23T10:19:17.460Z,49.63
2023-05-23T10:21:59.637Z,49.95
2023-05-23T10:24:27.755Z,43.36
2023-05-23T10:26:58.315Z,43.29
2023-05-23T10:29:25.968Z,43.45
2023-05-23T10:31:54.090Z,45.26
2023-05-23T10:34:35.132Z,44.73
2023-05-23T10:37:07.536Z,42.69
2023-05-23T10:39:47.012Z,43.43
2023-05-23T10:42:24.796Z,41.95
2023-05-23T10:44:51.928Z,42.48
2023-05-23T10:47:31.449Z,43.51
2023-05-23T10:49:58.671Z,42.72
2023-05-23T10:52:29.136Z,44.77
2023-05-23T10:54:56.533Z,45.21
2023-05-23T10:57:29.588Z,45.05
2023-05-23T10:59:57.212Z,44.49
2023-05-23T11:02:28.951Z,43.43
2023-05-23T11:05:22.931Z,43.01
2023-05-23T11:08:09.561Z,44.24
2023-05-23T11:10:55.072Z,42.94
2023-05-23T11:13:23.440Z,43.22
2023-05-23T11:15:50.733Z,42.98
2023-05-23T11:18:28.039Z,43.16
2023-05-23T11:20:55.708Z,40.14
2023-05-23T11:23:24.314Z,39.85
2023-05-23T11:25:53.614Z,40.34
2023-05-23T11:28:21.297Z,40.36
2023-05-23T11:30:49.897Z,40.02
2023-05-23T11:33:18.530Z,39.52
2023-05-23T11:35:46.675Z,39.21
2023-05-23T11:38:18.330Z,37.97
2023-05-23T11:40:47.719Z,37.53
2023-05-23T11:43:19.961Z,36.50
2023-05-23T11:45:47.376Z,38.29
2023-05-23T11:48:16.761Z,37.97
2023-05-23T11:50:52.374Z,38.84
2023-05-23T11:53:22.053Z,40.50
2023-05-23T11:55:57.857Z,42.59
2023-05-23T11:58:34.386Z,40.61
2023-05-23T12:01:09.602Z,41.71
2023-05-23T12:03:54.047Z,41.16
2023-05-23T12:06:23.679Z,40.77
2023-05-23T12:08:52.818Z,41.39
2023-05-23T12:11:20.162Z,39.17
2023-05-23T12:13:47.404Z,38.49
2023-05-23T12:16:17.510Z,38.55
2023-05-23T12:18:44.794Z,38.28
2023-05-23T12:21:12.546Z,39.27
2023-05-23T12:23:40.595Z,38.90
2023-05-23T12:26:08.156Z,37.61
2023-05-23T12:28:41.196Z,38.98
2023-05-23T12:31:21.407Z,38.60
2023-05-23T12:33:52.599Z,38.45
2023-05-23T12:36:26.377Z,39.40
2023-05-23T12:38:53.959Z,40.00
2023-05-23T12:41:22.219Z,38.14
2023-05-23T12:43:53.701Z,40.06
2023-05-23T12:46:22.184Z,39.48
2023-05-23T12:48:49.885Z,39.95
2023-05-23T12:51:17.233Z,39.50
2023-05-23T12:53:44.469Z,39.80
2023-05-23T12:56:11.773Z,39.51
2023-05-23T12:58:38.907Z,39.87
2023-05-23T13:01:06.307Z,41.04
2023-05-23T13:03:33.588Z,41.60
2023-05-23T13:06:00.976Z,41.05
2023-05-23T13:08:28.180Z,40.10
2023-05-23T13:10:55.580Z,40.83
2023-05-23T13:13:23.349Z,40.59
2023-05-23T13:15:51.131Z,40.33
2023-05-23T13:18:18.977Z,39.47
2023-05-23T13:20:46.762Z,40.52
2023-05-23T13:23:14.201Z,40.68
2023-05-23T13:25:41.566Z,39.91
2023-05-23T13:28:08.956Z,39.45
2023-05-23T13:30:36.375Z,39.83
2023-05-23T13:33:03.733Z,40.54
2023-05-23T13:35:30.974Z,40.21
2023-05-23T13:37:58.134Z,40.37
2023-05-23T13:40:25.412Z,40.01
2023-05-23T13:42:52.804Z,40.18
2023-05-23T13:45:22.707Z,40.60
2023-05-23T13:47:50.182Z,39.45
2023-05-23T13:50:17.916Z,40.61
2023-05-23T13:52:49.086Z,40.05
2023-05-23T13:55:18.800Z,39.17
2023-05-23T13:57:46.319Z,40.00
2023-05-23T14:00:14.565Z,39.82
2023-05-23T14:02:41.844Z,38.49
2023-05-23T14:05:09.641Z,37.77
2023-05-23T14:07:37.066Z,38.57
2023-05-23T14:10:05.304Z,38.16
2023-05-23T14:12:32.743Z,38.09
2023-05-23T14:14:59.995Z,38.74
2023-05-23T14:17:27.587Z,38.82
2023-05-23T14:19:54.846Z,36.54
2023-05-23T14:22:22.096Z,37.01
2023-05-23T14:24:49.385Z,36.02
2023-05-23T14:27:16.527Z,36.09
2023-05-23T14:29:46.669Z,36.79
2023-05-23T14:32:14.018Z,37.26
2023-05-23T14:34:41.678Z,37.20
2023-05-23T14:37:08.790Z,36.33
2023-05-23T14:39:36.297Z,36.43
2023-05-23T14:42:03.918Z,35.98
2023-05-23T14:44:31.166Z,34.53
2023-05-23T14:46:58.619Z,35.93
2023-05-23T14:49:25.758Z,36.34
2023-05-23T14:51:52.884Z,37.13
2023-05-23T14:54:20.079Z,37.68
2023-05-23T14:56:47.381Z,37.12
2023-05-23T14:59:15.246Z,36.66
2023-05-23T15:01:42.621Z,37.08
2023-05-23T15:04:10.400Z,36.89
2023-05-23T15:06:39.663Z,36.16
2023-05-23T15:09:07.727Z,37.73
2023-05-23T15:11:39.037Z,36.88
2023-05-23T15:14:06.504Z,36.82
2023-05-23T15:16:35.360Z,36.44
2023-05-23T15:19:02.721Z,36.73
2023-05-23T15:21:29.905Z,36.95
2023-05-23T15:23:57.917Z,36.83
2023-05-23T15:26:25.643Z,36.80
2023-05-23T15:28:52.792Z,37.99
2023-05-23T15:31:20.171Z,39.77
2023-05-23T15:33:50.522Z,41.08
2023-05-23T15:36:17.581Z,41.18
2023-05-23T15:38:44.978Z,40.99
2023-05-23T15:41:12.267Z,41.73
2023-05-23T15:43:39.351Z,41.25
2023-05-23T15:46:06.513Z,41.79
2023-05-23T15:48:33.652Z,42.42
2023-05-23T15:51:01.086Z,42.80
2023-05-23T15:53:29.390Z,42.79
2023-05-23T15:55:57.756Z,43.17
2023-05-23T15:58:24.820Z,43.13
2023-05-23T16:00:52.230Z,43.27
2023-05-23T16:03:19.270Z,43.78
2023-05-23T16:05:46.453Z,43.81
2023-05-23T16:08:13.662Z,43.93
2023-05-23T16:10:40.889Z,43.61
2023-05-23T16:13:09.202Z,46.02
2023-05-23T16:15:36.333Z,47.10
2023-05-23T16:18:04.181Z,47.50
2023-05-23T16:20:31.518Z,47.99
2023-05-23T16:22:58.599Z,47.78
2023-05-23T16:25:25.783Z,47.58
2023-05-23T16:27:52.936Z,48.80
2023-05-23T16:30:20.340Z,49.76
2023-05-23T16:32:47.520Z,50.19
2023-05-23T16:35:14.712Z,50.46
2023-05-23T16:37:41.897Z,50.38
2023-05-23T16:40:09.387Z,50.54
2023-05-23T16:42:37.221Z,50.29
2023-05-23T16:45:05.201Z,50.74
2023-05-23T16:47:32.832Z,50.45
2023-05-23T16:50:00.071Z,50.64
2023-05-23T16:52:27.182Z,51.14
2023-05-23T16:54:55.951Z,51.90
2023-05-23T16:57:23.340Z,52.47
2023-05-23T16:59:50.501Z,52.99
2023-05-23T17:02:17.718Z,53.23
2023-05-23T17:04:45.129Z,53.76
2023-05-23T17:07:12.348Z,53.95
2023-05-23T17:09:39.509Z,52.50
2023-05-23T17:12:07.506Z,50.38
2023-05-23T17:14:34.673Z,50.34
2023-05-23T17:17:03.537Z,50.35
2023-05-23T17:19:30.808Z,50.42
2023-05-23T17:22:01.190Z,50.58
2023-05-23T17:24:28.717Z,50.94
2023-05-23T17:26:55.902Z,51.71
2023-05-23T17:29:23.141Z,51.78
2023-05-23T17:31:50.451Z,51.88
2023-05-23T17:34:18.347Z,52.27
2023-05-23T17:36:45.537Z,52.38
2023-05-23T17:39:12.724Z,52.72
2023-05-23T17:41:39.944Z,52.85
2023-05-23T17:44:07.164Z,53.35
2023-05-23T17:46:34.329Z,53.17
2023-05-23T17:49:01.580Z,53.57
2023-05-23T17:51:47.459Z,53.67
2023-05-23T17:54:14.601Z,54.02
2023-05-23T17:56:43.394Z,54.72
2023-05-23T17:59:10.621Z,54.73
2023-05-23T18:01:37.722Z,55.03
2023-05-23T18:04:04.914Z,55.28
2023-05-23T18:06:32.055Z,55.27
2023-05-23T18:08:59.339Z,55.24
2023-05-23T18:11:27.531Z,55.60
2023-05-23T18:13:54.782Z,55.56
2023-05-23T18:16:22.285Z,55.78
2023-05-23T18:18:49.474Z,56.03
2023-05-23T18:21:18.147Z,56.43
2023-05-23T18:23:45.554Z,56.84
2023-05-23T18:26:12.749Z,56.99
2023-05-23T18:28:40.000Z,57.07
2023-05-23T18:31:07.225Z,57.53
2023-05-23T18:33:34.543Z,57.82
2023-05-23T18:36:02.194Z,58.23
2023-05-23T18:38:29.381Z,58.53
2023-05-23T18:40:56.544Z,58.87
2023-05-23T18:43:23.568Z,59.09
2023-05-23T18:45:50.701Z,59.61
2023-05-23T18:48:17.932Z,59.66
2023-05-23T18:50:45.324Z,60.70
2023-05-23T18:53:12.482Z,61.50
2023-05-23T18:55:39.597Z,62.06
2023-05-23T18:58:06.728Z,62.44
2023-05-23T19:00:33.857Z,62.51
2023-05-23T19:03:01.341Z,62.65
2023-05-23T19:05:29.620Z,63.44
2023-05-23T19:07:56.888Z,63.75
2023-05-23T19:10:24.043Z,63.89
2023-05-23T19:12:51.175Z,64.28
2023-05-23T19:15:19.510Z,64.33
2023-05-23T19:17:47.535Z,64.82
2023-05-23T19:20:18.518Z,64.99
2023-05-23T19:22:51.780Z,65.39
2023-05-23T19:25:19.371Z,66.25
2023-05-23T19:27:46.569Z,66.77
2023-05-23T19:30:13.816Z,67.61
2023-05-23T19:32:40.994Z,67.71
2023-05-23T19:35:08.580Z,66.44
2023-05-23T19:37:35.857Z,66.58
2023-05-23T19:40:03.521Z,72.56
2023-05-23T19:42:30.631Z,71.85
2023-05-23T19:44:57.847Z,72.29
2023-05-23T19:47:25.375Z,71.89
2023-05-23T19:49:52.496Z,72.77
2023-05-23T19:52:19.689Z,75.48
2023-05-23T19:54:46.923Z,77.71
2023-05-23T19:57:14.119Z,80.01
2023-05-23T19:59:42.367Z,79.13
2023-05-23T20:02:10.191Z,80.45
2023-05-23T20:04:37.386Z,82.33
2023-05-23T20:07:04.654Z,83.71
2023-05-23T20:09:32.167Z,82.96
2023-05-23T20:12:00.157Z,81.50
2023-05-23T20:14:29.184Z,80.73
2023-05-23T20:16:56.532Z,81.82
2023-05-23T20:19:23.693Z,83.86
2023-05-23T20:21:50.916Z,83.89
2023-05-23T20:24:18.070Z,83.48
2023-05-23T20:26:45.969Z,83.44
2023-05-23T20:29:13.099Z,85.31
2023-05-23T20:31:40.376Z,87.74
2023-05-23T20:34:07.387Z,90.68
2023-05-23T20:36:34.674Z,90.51
2023-05-23T20:39:01.774Z,89.11
2023-05-23T20:41:29.772Z,90.27
2023-05-23T20:43:56.999Z,89.16
2023-05-23T20:46:26.225Z,88.13
2023-05-23T20:48:53.660Z,89.61
2023-05-23T20:51:22.417Z,89.42
2023-05-23T20:53:51.535Z,88.56
2023-05-23T20:56:18.619Z,87.67
2023-05-23T20:58:46.101Z,87.12
2023-05-23T21:01:15.228Z,88.07
2023-05-23T21:03:42.414Z,87.88
2023-05-23T21:06:09.636Z,87.31
2023-05-23T21:08:36.848Z,88.57
2023-05-23T21:11:03.959Z,88.06
2023-05-23T21:13:31.133Z,88.12
2023-05-23T21:15:58.322Z,87.61
2023-05-23T21:18:25.478Z,87.15
2023-05-23T21:20:52.652Z,87.08
2023-05-23T21:23:19.817Z,86.29
2023-05-23T21:25:46.958Z,86.11
2023-05-23T21:28:14.142Z,85.78
2023-05-23T21:30:41.853Z,85.78
2023-05-23T21:33:09.143Z,86.21
2023-05-23T21:35:37.866Z,86.69
2023-05-23T21:38:04.985Z,86.99
2023-05-23T21:40:32.106Z,88.13
2023-05-23T21:42:59.188Z,88.52
2023-05-23T21:45:26.342Z,89.68
2023-05-23T21:47:53.475Z,90.51
2023-05-23T21:50:20.610Z,91.01
2023-05-23T21:52:47.689Z,91.60
2023-05-23T21:55:14.806Z,91.78
2023-05-23T21:57:41.988Z,91.83
2023-05-23T22:00:13.116Z,91.64
2023-05-23T22:02:40.753Z,91.84
2023-05-23T22:05:08.958Z,91.80
2023-05-23T22:07:36.108Z,91.78
2023-05-23T22:10:03.416Z,91.47
2023-05-23T22:12:30.902Z,90.98
2023-05-23T22:14:58.282Z,93.18
2023-05-23T22:17:26.599Z,96.61
2023-05-23T22:19:55.978Z,96.34
2023-05-23T22:22:23.053Z,94.91
2023-05-23T22:24:50.202Z,95.44
2023-05-23T22:27:17.565Z,95.56
2023-05-23T22:29:44.715Z,95.65
2023-05-23T22:32:11.982Z,96.16
2023-05-23T22:34:39.277Z,95.17
2023-05-23T22:37:06.445Z,94.28
2023-05-23T22:39:33.536Z,94.71
2023-05-23T22:42:00.903Z,96.66
2023-05-23T22:44:28.013Z,99.26
2023-05-23T22:46:56.243Z,100.00
2023-05-23T22:49:25.385Z,100.00
2023-05-23T22:51:52.561Z,99.39
2023-05-23T22:54:19.683Z,99.07
2023-05-23T22:56:46.810Z,98.83
2023-05-23T22:59:13.886Z,100.00
2023-05-23T23:01:41.114Z,100.00
2023-05-23T23:04:08.229Z,100.00
2023-05-23T23:06:35.740Z,100.00
2023-05-23T23:09:02.972Z,100.00
2023-05-23T23:11:30.035Z,100.00
2023-05-23T23:13:57.351Z,100.00
2023-05-23T23:16:24.632Z,100.00
2023-05-23T23:18:52.741Z,100.00
2023-05-23T23:21:20.037Z,100.00
2023-05-23T23:23:47.136Z,100.00
2023-05-23T23:26:14.174Z,100.00
2023-05-23T23:28:41.231Z,100.00
2023-05-23T23:31:08.307Z,100.00
2023-05-23T23:33:35.573Z,100.00
2023-05-23T23:36:02.851Z,100.00
2023-05-23T23:38:29.966Z,100.00
2023-05-23T23:40:57.166Z,100.00
2023-05-23T23:43:24.296Z,100.00
2023-05-23T23:45:51.358Z,100.00
2023-05-23T23:48:18.523Z,100.00
2023-05-23T23:50:45.745Z,100.00
2023-05-23T23:53:12.906Z,100.00
2023-05-23T23:55:40.154Z,100.00
2023-05-23T23:58:07.267Z,100.00
